sensor_id;sensor_type;location;lat;lon;timestamp;temperature;humidity
1524;DHT22;755;53.658;10.118;2023-02-01T00:02:23;4.10;99.90
1524;DHT22;755;53.658;10.118;2023-02-01T00:12:26;4.00;99.90
1524;DHT22;755;53.658;10.118;2023-02-01T00:22:28;3.80;99.90
1524;DHT22;755;53.658;10.118;2023-02-01T00:32:32;3.90;99.90
1524;DHT22;755;53.658;10.118;2023-02-01T00:42:33;4.00;99.90
1524;DHT22;755;53.658;10.118;2023-02-01T00:52:37;4.10;99.90
1524;DHT22;755;53.658;10.118;2023-02-01T01:02:39;4.10;99.90
1524;DHT22;755;53.658;10.118;2023-02-01T01:12:42;4.20;99.90
1524;DHT22;755;53.658;10.118;2023-02-01T01:22:44;4.30;99.90
1524;DHT22;755;53.658;10.118;2023-02-01T01:32:47;4.50;99.90
1524;DHT22;755;53.658;10.118;2023-02-01T01:42:49;4.50;99.90
1524;DHT22;755;53.658;10.118;2023-02-01T01:52:58;4.60;99.90
1524;DHT22;755;53.658;10.118;2023-02-01T02:03:03;4.60;99.90
1524;DHT22;755;53.658;10.118;2023-02-01T02:13:09;4.70;99.90
1524;DHT22;755;53.658;10.118;2023-02-01T02:34:07;4.80;99.90
1524;DHT22;755;53.658;10.118;2023-02-01T02:44:16;4.90;99.90
1524;DHT22;755;53.658;10.118;2023-02-01T02:54:43;4.90;99.90
1524;DHT22;755;53.658;10.118;2023-02-01T03:04:52;4.80;99.90
1524;DHT22;755;53.658;10.118;2023-02-01T03:15:03;4.60;99.90
1524;DHT22;755;53.658;10.118;2023-02-01T03:25:11;4.50;99.90
1524;DHT22;755;53.658;10.118;2023-02-01T03:35:15;4.40;99.90
1524;DHT22;755;53.658;10.118;2023-02-01T03:45:20;4.40;99.90
1524;DHT22;755;53.658;10.118;2023-02-01T03:55:27;4.40;99.90
1524;DHT22;755;53.658;10.118;2023-02-01T04:05:30;4.40;99.90
1524;DHT22;755;53.658;10.118;2023-02-01T04:15:33;4.40;99.90
1524;DHT22;755;53.658;10.118;2023-02-01T04:25:35;4.40;99.90
1524;DHT22;755;53.658;10.118;2023-02-01T04:35:38;4.30;99.90
1524;DHT22;755;53.658;10.118;2023-02-01T04:45:40;3.90;99.90
1524;DHT22;755;53.658;10.118;2023-02-01T04:55:44;3.90;99.90
1524;DHT22;755;53.658;10.118;2023-02-01T05:05:47;4.10;99.90
1524;DHT22;755;53.658;10.118;2023-02-01T05:15:51;4.00;99.90
1524;DHT22;755;53.658;10.118;2023-02-01T05:25:58;4.00;99.90
1524;DHT22;755;53.658;10.118;2023-02-01T05:36:02;4.00;99.90
1524;DHT22;755;53.658;10.118;2023-02-01T05:46:04;3.80;99.90
1524;DHT22;755;53.658;10.118;2023-02-01T05:56:08;3.60;99.90
1524;DHT22;755;53.658;10.118;2023-02-01T06:06:10;3.30;99.90
1524;DHT22;755;53.658;10.118;2023-02-01T06:16:13;3.20;99.90
1524;DHT22;755;53.658;10.118;2023-02-01T06:26:16;3.20;99.90
1524;DHT22;755;53.658;10.118;2023-02-01T06:36:20;3.20;99.90
1524;DHT22;755;53.658;10.118;2023-02-01T06:46:22;3.10;99.90
1524;DHT22;755;53.658;10.118;2023-02-01T06:56:26;3.20;99.90
1524;DHT22;755;53.658;10.118;2023-02-01T07:06:28;3.20;99.90
1524;DHT22;755;53.658;10.118;2023-02-01T07:16:31;3.40;99.90
1524;DHT22;755;53.658;10.118;2023-02-01T07:26:33;3.50;99.90
1524;DHT22;755;53.658;10.118;2023-02-01T07:36:37;3.70;99.90
1524;DHT22;755;53.658;10.118;2023-02-01T07:46:39;3.80;99.90
1524;DHT22;755;53.658;10.118;2023-02-01T07:56:43;4.00;99.90
1524;DHT22;755;53.658;10.118;2023-02-01T08:06:45;4.20;99.90
1524;DHT22;755;53.658;10.118;2023-02-01T08:16:48;4.30;99.90
1524;DHT22;755;53.658;10.118;2023-02-01T08:26:50;4.40;99.90
1524;DHT22;755;53.658;10.118;2023-02-01T08:36:54;4.50;99.90
1524;DHT22;755;53.658;10.118;2023-02-01T08:47:05;4.70;99.90
1524;DHT22;755;53.658;10.118;2023-02-01T08:57:11;4.90;99.90
1524;DHT22;755;53.658;10.118;2023-02-01T09:07:14;4.70;99.90
1524;DHT22;755;53.658;10.118;2023-02-01T09:17:19;4.90;99.90
1524;DHT22;755;53.658;10.118;2023-02-01T09:27:24;5.40;99.90
1524;DHT22;755;53.658;10.118;2023-02-01T09:37:27;5.20;99.90
1524;DHT22;755;53.658;10.118;2023-02-01T09:47:30;5.50;99.90
1524;DHT22;755;53.658;10.118;2023-02-01T09:57:43;5.80;99.90
1524;DHT22;755;53.658;10.118;2023-02-01T10:07:56;5.80;99.90
1524;DHT22;755;53.658;10.118;2023-02-01T10:18:27;5.90;99.90
1524;DHT22;755;53.658;10.118;2023-02-01T10:28:36;5.80;99.90
1524;DHT22;755;53.658;10.118;2023-02-01T10:38:46;5.30;99.90
1524;DHT22;755;53.658;10.118;2023-02-01T10:48:53;5.00;99.90
1524;DHT22;755;53.658;10.118;2023-02-01T10:59:03;5.20;99.90
1524;DHT22;755;53.658;10.118;2023-02-01T11:09:18;5.50;99.90
1524;DHT22;755;53.658;10.118;2023-02-01T11:19:27;5.50;99.90
1524;DHT22;755;53.658;10.118;2023-02-01T11:29:37;5.60;99.90
1524;DHT22;755;53.658;10.118;2023-02-01T11:39:42;5.40;99.90
1524;DHT22;755;53.658;10.118;2023-02-01T11:49:56;5.50;99.90
1524;DHT22;755;53.658;10.118;2023-02-01T12:00:21;5.60;99.90
1524;DHT22;755;53.658;10.118;2023-02-01T12:10:40;5.70;99.90
1524;DHT22;755;53.658;10.118;2023-02-01T12:21:06;5.40;99.90
1524;DHT22;755;53.658;10.118;2023-02-01T12:31:29;5.30;99.90
1524;DHT22;755;53.658;10.118;2023-02-01T12:41:50;5.10;99.90
1524;DHT22;755;53.658;10.118;2023-02-01T12:51:59;4.90;99.90
1524;DHT22;755;53.658;10.118;2023-02-01T13:02:15;4.60;99.90
1524;DHT22;755;53.658;10.118;2023-02-01T13:12:22;4.40;99.90
1524;DHT22;755;53.658;10.118;2023-02-01T13:22:42;4.30;99.90
1524;DHT22;755;53.658;10.118;2023-02-01T13:33:14;4.40;99.90
1524;DHT22;755;53.658;10.118;2023-02-01T13:43:23;5.00;99.90
1524;DHT22;755;53.658;10.118;2023-02-01T13:53:29;4.90;99.90
1524;DHT22;755;53.658;10.118;2023-02-01T14:03:45;4.50;99.90
1524;DHT22;755;53.658;10.118;2023-02-01T14:13:50;4.40;99.90
1524;DHT22;755;53.658;10.118;2023-02-01T14:24:01;4.40;99.90
1524;DHT22;755;53.658;10.118;2023-02-01T14:34:15;4.20;99.90
1524;DHT22;755;53.658;10.118;2023-02-01T14:44:36;4.00;99.90
1524;DHT22;755;53.658;10.118;2023-02-01T14:54:46;4.00;99.90
1524;DHT22;755;53.658;10.118;2023-02-01T15:04:56;4.00;99.90
1524;DHT22;755;53.658;10.118;2023-02-01T15:15:13;4.10;99.90
1524;DHT22;755;53.658;10.118;2023-02-01T15:25:29;4.10;99.90
1524;DHT22;755;53.658;10.118;2023-02-01T15:35:40;4.10;99.90
1524;DHT22;755;53.658;10.118;2023-02-01T15:45:46;4.10;99.90
1524;DHT22;755;53.658;10.118;2023-02-01T15:55:53;4.00;99.90
1524;DHT22;755;53.658;10.118;2023-02-01T16:06:04;4.10;99.90
1524;DHT22;755;53.658;10.118;2023-02-01T16:16:08;4.10;99.90
1524;DHT22;755;53.658;10.118;2023-02-01T16:26:16;4.10;99.90
1524;DHT22;755;53.658;10.118;2023-02-01T16:36:22;4.10;99.90
1524;DHT22;755;53.658;10.118;2023-02-01T16:46:27;4.10;99.90
1524;DHT22;755;53.658;10.118;2023-02-01T16:56:34;4.30;99.90
1524;DHT22;755;53.658;10.118;2023-02-01T17:06:39;4.30;99.90
1524;DHT22;755;53.658;10.118;2023-02-01T17:16:46;4.20;99.90
1524;DHT22;755;53.658;10.118;2023-02-01T17:26:51;4.30;99.90
1524;DHT22;755;53.658;10.118;2023-02-01T17:36:54;4.40;99.90
1524;DHT22;755;53.658;10.118;2023-02-01T17:46:58;4.50;99.90
1524;DHT22;755;53.658;10.118;2023-02-01T17:57:10;4.60;99.90
1524;DHT22;755;53.658;10.118;2023-02-01T18:07:14;4.70;99.90
1524;DHT22;755;53.658;10.118;2023-02-01T18:17:21;4.70;99.90
1524;DHT22;755;53.658;10.118;2023-02-01T18:27:25;4.80;99.90
1524;DHT22;755;53.658;10.118;2023-02-01T18:37:29;4.90;99.90
1524;DHT22;755;53.658;10.118;2023-02-01T18:47:33;4.70;99.90
1524;DHT22;755;53.658;10.118;2023-02-01T18:57:36;4.80;99.90
1524;DHT22;755;53.658;10.118;2023-02-01T19:07:40;4.80;99.90
1524;DHT22;755;53.658;10.118;2023-02-01T19:17:45;5.00;99.90
1524;DHT22;755;53.658;10.118;2023-02-01T19:27:49;5.00;99.90
1524;DHT22;755;53.658;10.118;2023-02-01T19:37:52;5.10;99.90
1524;DHT22;755;53.658;10.118;2023-02-01T19:47:57;4.90;99.90
1524;DHT22;755;53.658;10.118;2023-02-01T19:58:03;4.90;99.90
1524;DHT22;755;53.658;10.118;2023-02-01T20:08:07;4.60;99.90
1524;DHT22;755;53.658;10.118;2023-02-01T20:18:09;4.50;99.90
1524;DHT22;755;53.658;10.118;2023-02-01T20:28:13;4.60;99.90
1524;DHT22;755;53.658;10.118;2023-02-01T20:38:15;4.50;99.90
1524;DHT22;755;53.658;10.118;2023-02-01T20:48:18;4.60;99.90
1524;DHT22;755;53.658;10.118;2023-02-01T20:58:21;4.60;99.90
1524;DHT22;755;53.658;10.118;2023-02-01T21:08:26;4.70;99.90
1524;DHT22;755;53.658;10.118;2023-02-01T21:18:29;5.00;99.90
1524;DHT22;755;53.658;10.118;2023-02-01T21:28:53;5.00;99.90
1524;DHT22;755;53.658;10.118;2023-02-01T21:39:09;5.00;99.90
1524;DHT22;755;53.658;10.118;2023-02-01T21:49:13;5.20;99.90
1524;DHT22;755;53.658;10.118;2023-02-01T21:59:15;5.40;99.90
1524;DHT22;755;53.658;10.118;2023-02-01T22:09:20;5.40;99.90
1524;DHT22;755;53.658;10.118;2023-02-01T22:19:22;4.90;99.90
1524;DHT22;755;53.658;10.118;2023-02-01T22:29:26;4.70;99.90
1524;DHT22;755;53.658;10.118;2023-02-01T22:39:28;4.80;99.90
1524;DHT22;755;53.658;10.118;2023-02-01T22:49:32;4.90;99.90
1524;DHT22;755;53.658;10.118;2023-02-01T22:59:34;4.90;99.90
1524;DHT22;755;53.658;10.118;2023-02-01T23:09:37;4.80;99.90
1524;DHT22;755;53.658;10.118;2023-02-01T23:19:40;5.00;99.90
1524;DHT22;755;53.658;10.118;2023-02-01T23:29:44;5.00;99.90
1524;DHT22;755;53.658;10.118;2023-02-01T23:39:46;5.20;99.90
1524;DHT22;755;53.658;10.118;2023-02-01T23:49:50;5.20;99.90
1524;DHT22;755;53.658;10.118;2023-02-01T23:59:52;5.30;99.90
